Time;durP1;ratioP1;P1;durP2;ratioP2;P2;SDS_P1;SDS_P2;PMS_P1;PMS_P2;Temp;Humidity;BMP_temperature;BMP_pressure;BME280_temperature;BME280_humidity;BME280_pressure;Samples;Min_cycle;Max_cycle;Signal;HPM_P1;HPM_P2
2021/06/14 00:00:07;;;;;;;14.18;6.45;;;;;;;14.14;62.72;100384.19;5031479;28;20029;-64
2021/06/14 00:02:32;;;;;;;12.73;7.47;;;;;;;14.10;62.79;100382.63;5023658;28;20120;-64
2021/06/14 00:04:58;;;;;;;10.30;6.82;;;;;;;14.08;62.86;100382.72;5030617;28;20041;-66
2021/06/14 00:07:23;;;;;;;17.38;7.40;;;;;;;14.01;62.59;100377.84;5029438;28;20172;-65
2021/06/14 00:09:49;;;;;;;15.05;6.10;;;;;;;13.95;62.76;100381.66;5029643;28;20064;-65
2021/06/14 00:12:21;;;;;;;10.40;7.15;;;;;;;13.92;63.23;100379.19;5029749;28;20488;-65
2021/06/14 00:14:50;;;;;;;9.98;6.78;;;;;;;13.91;63.14;100373.03;5030108;28;20057;-64
2021/06/14 00:17:16;;;;;;;12.25;7.45;;;;;;;13.89;63.30;100371.41;5030041;28;20120;-64
2021/06/14 00:19:43;;;;;;;14.05;7.10;;;;;;;13.84;63.28;100371.63;5029789;28;20094;-66
2021/06/14 00:22:08;;;;;;;13.63;7.85;;;;;;;13.81;63.91;100369.16;5029911;28;20079;-66
2021/06/14 00:24:34;;;;;;;9.35;6.53;;;;;;;13.77;63.33;100370.25;5030432;28;20029;-64
2021/06/14 00:26:59;;;;;;;13.55;6.32;;;;;;;13.72;64.04;100362.53;5029864;28;20037;-64
2021/06/14 00:29:24;;;;;;;14.32;6.68;;;;;;;13.67;63.85;100367.22;5029365;28;20084;-65
2021/06/14 00:31:50;;;;;;;12.70;6.28;;;;;;;13.65;63.80;100374.41;5029601;28;20041;-64
2021/06/14 00:34:15;;;;;;;12.68;7.15;;;;;;;13.65;63.62;100368.25;5030135;28;20030;-63
2021/06/14 00:36:41;;;;;;;11.60;6.80;;;;;;;13.62;63.55;100363.13;5029337;28;20045;-64
2021/06/14 00:39:06;;;;;;;13.38;7.88;;;;;;;13.58;64.08;100358.91;5029385;28;20493;-65
2021/06/14 00:41:31;;;;;;;10.68;7.13;;;;;;;13.55;64.39;100359.94;5028275;28;20036;-63
2021/06/14 00:43:57;;;;;;;15.82;7.20;;;;;;;13.51;64.30;100361.91;5030459;28;20048;-64
2021/06/14 00:46:22;;;;;;;12.85;7.20;;;;;;;13.45;64.09;100351.59;5036188;28;20033;-62
2021/06/14 00:48:48;;;;;;;10.05;6.80;;;;;;;13.43;64.35;100342.03;5038034;28;20033;-63
2021/06/14 00:51:13;;;;;;;12.60;7.18;;;;;;;13.37;63.86;100345.84;5028171;28;20033;-63
2021/06/14 00:53:43;;;;;;;13.45;7.40;;;;;;;13.30;64.28;100340.00;5035648;28;20029;-64
2021/06/14 00:56:12;;;;;;;12.45;6.32;;;;;;;13.23;65.22;100338.59;5036438;28;20045;-63
2021/06/14 00:58:39;;;;;;;12.82;6.90;;;;;;;13.17;65.10;100340.69;5035662;28;20049;-64
2021/06/14 01:01:05;;;;;;;17.55;8.05;;;;;;;13.11;65.56;100339.22;5009708;28;20485;-64
2021/06/14 01:03:31;;;;;;;19.20;8.18;;;;;;;13.07;65.32;100341.16;5034561;28;20037;-65
2021/06/14 01:06:00;;;;;;;10.10;6.55;;;;;;;13.05;65.28;100335.09;5036207;28;20029;-64
2021/06/14 01:08:26;;;;;;;10.57;6.88;;;;;;;13.04;65.69;100333.38;5036557;28;20528;-64
2021/06/14 01:10:52;;;;;;;12.68;6.75;;;;;;;13.00;65.55;100333.63;5039703;28;20033;-64
2021/06/14 01:13:33;;;;;;;13.77;7.30;;;;;;;12.97;65.40;100321.41;5037463;28;20038;-64
2021/06/14 01:16:37;;;;;;;11.95;7.47;;;;;;;12.94;65.60;100318.03;5036255;28;20033;-62
2021/06/14 01:19:56;;;;;;;13.52;6.40;;;;;;;12.89;66.03;100316.47;5035238;28;20044;-64
2021/06/14 01:22:36;;;;;;;11.30;5.97;;;;;;;12.82;66.34;100309.78;5010034;28;20042;-65
2021/06/14 01:25:12;;;;;;;11.85;6.35;;;;;;;12.81;66.08;100309.84;5013378;28;20838;-64
2021/06/14 01:27:53;;;;;;;11.65;7.22;;;;;;;12.76;67.02;100303.94;5029977;28;20091;-65
2021/06/14 01:30:24;;;;;;;13.52;7.22;;;;;;;12.71;66.71;100295.38;5031901;28;20030;-63
2021/06/14 01:32:50;;;;;;;14.95;8.90;;;;;;;12.73;66.85;100288.22;5035950;28;20037;-65
2021/06/14 01:35:19;;;;;;;13.80;6.88;;;;;;;12.72;66.78;100287.34;5035393;28;20034;-64
2021/06/14 01:37:48;;;;;;;13.50;8.18;;;;;;;12.77;66.50;100292.41;5035534;28;20040;-64
2021/06/14 01:40:16;;;;;;;13.80;7.03;;;;;;;12.82;66.23;100287.75;5035420;28;20091;-64
2021/06/14 01:42:45;;;;;;;10.40;7.18;;;;;;;12.87;65.69;100286.59;5035892;28;20041;-63
2021/06/14 01:45:11;;;;;;;11.80;6.82;;;;;;;12.90;65.87;100290.88;5035601;28;20060;-65
2021/06/14 01:47:36;;;;;;;12.07;6.00;;;;;;;12.91;65.02;100289.94;5034720;28;20029;-64
2021/06/14 01:50:04;;;;;;;11.23;7.03;;;;;;;12.88;65.44;100284.81;5037442;28;20064;-64
2021/06/14 01:52:29;;;;;;;11.10;7.18;;;;;;;12.87;65.29;100278.66;5037183;28;20038;-64
2021/06/14 01:54:56;;;;;;;10.95;6.63;;;;;;;12.91;65.24;100274.06;5032865;28;20025;-65
2021/06/14 01:57:22;;;;;;;13.75;7.85;;;;;;;12.95;64.94;100278.28;5031652;28;20112;-64
2021/06/14 01:59:51;;;;;;;16.10;7.60;;;;;;;12.95;64.54;100275.63;5032278;28;20029;-64
2021/06/14 02:02:16;;;;;;;11.18;7.47;;;;;;;12.96;64.94;100269.38;5032078;28;20184;-64
2021/06/14 02:04:46;;;;;;;18.42;8.57;;;;;;;12.95;64.66;100282.72;5031661;28;20535;-65
2021/06/14 02:07:13;;;;;;;15.27;7.72;;;;;;;12.92;64.87;100272.25;5030159;28;20035;-65
2021/06/14 02:09:40;;;;;;;16.80;7.88;;;;;;;12.88;65.00;100268.94;5031669;28;20075;-65
2021/06/14 02:12:08;;;;;;;14.40;8.00;;;;;;;12.86;65.25;100268.16;5031386;28;20053;-66
2021/06/14 02:14:36;;;;;;;13.23;7.60;;;;;;;12.81;65.38;100271.03;5031878;28;20029;-66
2021/06/14 02:17:11;;;;;;;10.45;7.50;;;;;;;12.76;65.64;100264.25;5031682;28;20087;-64
2021/06/14 02:19:39;;;;;;;13.57;7.68;;;;;;;12.70;65.71;100273.38;5031530;28;20033;-64
2021/06/14 02:22:04;;;;;;;12.05;7.90;;;;;;;12.66;66.31;100263.88;5031750;28;20112;-64
2021/06/14 02:24:30;;;;;;;11.18;6.80;;;;;;;12.62;66.19;100263.16;5031420;28;20112;-65
2021/06/14 02:26:55;;;;;;;13.60;7.68;;;;;;;12.59;65.94;100263.31;5031036;28;20540;-64
2021/06/14 02:29:21;;;;;;;14.57;7.95;;;;;;;12.57;66.48;100262.53;5031763;28;20521;-65
2021/06/14 02:31:46;;;;;;;11.98;7.22;;;;;;;12.55;66.43;100247.66;5031489;28;20038;-66
2021/06/14 02:34:11;;;;;;;9.23;6.03;;;;;;;12.53;66.62;100246.88;5029983;28;20497;-65
2021/06/14 02:36:38;;;;;;;16.00;8.00;;;;;;;12.52;66.60;100243.38;5030894;28;20120;-64
2021/06/14 02:39:13;;;;;;;15.93;8.43;;;;;;;12.44;67.72;100237.63;5031029;28;20113;-66
2021/06/14 02:41:39;;;;;;;;;;;;;;;12.41;66.75;100236.00;5013928;28;20045;-63
2021/06/14 02:44:05;;;;;;;;;;;;;;;12.37;67.18;100236.22;5031012;28;19917;-65
2021/06/14 02:46:35;;;;;;;9.35;6.78;;;;;;;12.36;66.78;100238.00;5030672;28;20330;-65
2021/06/14 02:49:01;;;;;;;13.00;7.30;;;;;;;12.35;66.68;100236.28;5030880;28;20156;-64
2021/06/14 02:51:29;;;;;;;16.80;8.40;;;;;;;12.35;66.96;100232.78;5030624;28;20033;-65
2021/06/14 02:54:04;;;;;;;12.57;7.50;;;;;;;12.29;67.64;100236.59;5030450;28;20026;-65
2021/06/14 02:56:34;;;;;;;16.05;8.02;;;;;;;12.26;66.79;100239.41;5029052;28;20388;-65
2021/06/14 02:59:01;;;;;;;11.52;7.45;;;;;;;12.19;67.59;100232.69;5030346;28;20038;-65
2021/06/14 03:01:28;;;;;;;10.35;6.68;;;;;;;12.14;67.57;100238.22;5030369;28;20029;-64
2021/06/14 03:03:56;;;;;;;9.73;6.60;;;;;;;12.10;68.04;100223.41;5030768;28;20030;-64
2021/06/14 03:06:22;;;;;;;9.80;7.22;;;;;;;12.08;68.05;100224.41;5029948;28;20040;-65
2021/06/14 03:08:48;;;;;;;13.93;6.50;;;;;;;12.12;67.79;100228.63;5030737;28;20033;-65
2021/06/14 03:11:14;;;;;;;11.07;7.28;;;;;;;12.11;68.05;100225.16;5032882;28;20037;-65
2021/06/14 03:13:44;;;;;;;20.13;9.25;;;;;;;12.08;67.94;100224.41;5033755;28;20034;-65
2021/06/14 03:16:13;;;;;;;13.95;8.18;;;;;;;12.10;68.11;100219.94;5029681;28;20036;-65
2021/06/14 03:18:39;;;;;;;12.52;7.15;;;;;;;12.11;67.97;100214.56;5031686;28;20034;-66
2021/06/14 03:21:05;;;;;;;10.73;7.38;;;;;;;12.18;67.82;100230.97;5031876;28;20025;-65
2021/06/14 03:23:31;;;;;;;15.00;7.75;;;;;;;12.18;67.62;100226.56;5030031;28;20041;-66
2021/06/14 03:25:56;;;;;;;18.00;7.85;;;;;;;12.12;67.88;100231.28;5029122;28;20037;-65
2021/06/14 03:28:23;;;;;;;11.18;7.47;;;;;;;12.12;67.66;100224.22;5031148;28;20057;-65
2021/06/14 03:30:50;;;;;;;10.55;7.20;;;;;;;12.13;67.44;100225.06;5026475;28;20422;-65
2021/06/14 03:33:19;;;;;;;14.18;8.18;;;;;;;12.09;67.87;100226.16;5030535;28;20070;-65
2021/06/14 03:35:47;;;;;;;13.82;7.60;;;;;;;12.10;68.00;100218.13;5029896;28;20044;-64
2021/06/14 03:38:12;;;;;;;18.38;8.93;;;;;;;12.09;67.28;100218.22;5028506;28;20105;-64
2021/06/14 03:40:38;;;;;;;10.05;6.95;;;;;;;12.04;68.01;100215.81;5030104;28;20057;-64
2021/06/14 03:43:05;;;;;;;18.48;9.23;;;;;;;12.04;68.19;100215.81;5030031;28;20044;-64
2021/06/14 03:45:32;;;;;;;16.13;8.05;;;;;;;11.97;68.30;100206.47;5029892;28;20489;-64
2021/06/14 03:47:58;;;;;;;13.57;8.48;;;;;;;11.94;68.88;100203.97;5030880;28;20397;-64
2021/06/14 03:50:24;;;;;;;12.30;7.70;;;;;;;11.90;69.04;100205.88;5030554;28;20104;-65
2021/06/14 03:52:50;;;;;;;12.10;7.75;;;;;;;11.90;69.21;100202.41;5030053;28;20030;-64
2021/06/14 03:55:16;;;;;;;15.13;7.85;;;;;;;11.92;68.77;100203.19;5029524;28;20036;-64
2021/06/14 03:57:42;;;;;;;19.05;9.85;;;;;;;11.91;68.99;100196.16;5029647;28;20075;-64
2021/06/14 04:00:13;;;;;;;18.15;9.15;;;;;;;11.92;68.89;100196.09;5029110;28;20032;-65
2021/06/14 04:02:38;;;;;;;13.45;8.43;;;;;;;11.97;68.82;100194.09;5029229;28;20500;-66
2021/06/14 04:05:05;;;;;;;15.85;7.93;;;;;;;12.01;68.65;100186.84;5029020;28;20053;-66
2021/06/14 04:07:31;;;;;;;15.93;7.93;;;;;;;12.07;68.62;100194.50;5029247;28;20033;-64
2021/06/14 04:09:59;;;;;;;15.65;8.32;;;;;;;12.11;69.07;100188.16;5029324;28;20025;-66
2021/06/14 04:12:28;;;;;;;14.98;8.75;;;;;;;12.20;68.67;100195.59;5029156;28;20036;-64
2021/06/14 04:14:54;;;;;;;23.15;9.00;;;;;;;12.27;68.84;100193.53;5030120;28;20405;-63
2021/06/14 04:17:19;;;;;;;12.38;7.65;;;;;;;12.33;68.73;100195.00;5029553;28;20030;-64
2021/06/14 04:19:45;;;;;;;14.60;8.00;;;;;;;12.35;68.27;100191.34;5030316;28;20029;-65
2021/06/14 04:22:10;;;;;;;11.90;7.13;;;;;;;12.44;68.02;100200.63;5030893;28;20038;-63
2021/06/14 04:24:35;;;;;;;11.20;7.53;;;;;;;12.53;68.53;100197.50;5029980;28;20169;-65
2021/06/14 04:27:01;;;;;;;14.05;8.05;;;;;;;12.58;68.04;100200.78;5028961;28;20040;-65
2021/06/14 04:29:26;;;;;;;14.98;8.77;;;;;;;12.67;68.21;100200.31;5029126;28;20040;-64
2021/06/14 04:31:52;;;;;;;14.73;9.27;;;;;;;12.75;68.22;100202.56;5029474;28;20493;-64
2021/06/14 04:34:17;;;;;;;13.50;6.75;;;;;;;12.82;67.87;100198.66;5029212;28;20040;-64
2021/06/14 04:36:43;;;;;;;13.95;7.95;;;;;;;12.94;67.82;100194.50;5028626;28;20147;-63
2021/06/14 04:39:09;;;;;;;13.73;8.48;;;;;;;12.99;67.85;100197.75;5029017;28;20029;-65
2021/06/14 04:41:34;;;;;;;12.95;7.82;;;;;;;13.08;67.73;100189.34;5027369;28;20045;-63
2021/06/14 04:44:00;;;;;;;11.95;7.47;;;;;;;13.19;67.36;100182.63;5027489;28;20124;-64
2021/06/14 04:46:25;;;;;;;13.07;7.35;;;;;;;13.32;67.03;100186.34;5028625;28;20033;-64
2021/06/14 04:48:51;;;;;;;11.73;7.45;;;;;;;13.42;66.98;100194.66;5028718;28;20032;-65
2021/06/14 04:51:16;;;;;;;12.40;7.32;;;;;;;13.49;67.11;100194.25;5028771;28;20034;-64
2021/06/14 04:53:41;;;;;;;12.55;6.65;;;;;;;13.63;66.43;100197.91;5028320;28;20640;-66
2021/06/14 04:56:07;;;;;;;11.07;7.30;;;;;;;13.77;66.72;100197.16;5028657;28;20025;-65
2021/06/14 04:58:34;;;;;;;11.18;7.25;;;;;;;13.91;66.54;100194.59;5029110;28;20029;-64
2021/06/14 05:00:59;;;;;;;24.13;9.25;;;;;;;14.07;65.73;100190.09;5026529;28;20034;-64
2021/06/14 05:03:25;;;;;;;9.90;6.97;;;;;;;14.24;65.36;100188.28;5028752;28;20029;-65
2021/06/14 05:05:50;;;;;;;10.50;6.45;;;;;;;14.50;64.93;100186.78;5029482;28;20060;-65
2021/06/14 05:08:18;;;;;;;14.13;8.02;;;;;;;14.77;64.88;100177.19;5028748;28;20044;-66
2021/06/14 05:10:45;;;;;;;16.10;7.43;;;;;;;15.07;64.14;100173.63;5028920;28;20026;-64
2021/06/14 05:13:10;;;;;;;10.93;6.25;;;;;;;15.43;63.30;100173.13;5028896;28;20498;-65
2021/06/14 05:15:35;;;;;;;11.27;6.55;;;;;;;15.75;62.38;100170.25;5028763;28;20076;-65
2021/06/14 05:18:01;;;;;;;9.48;5.82;;;;;;;16.10;61.83;100175.91;5029002;28;20120;-65
2021/06/14 05:20:29;;;;;;;11.90;6.70;;;;;;;16.31;61.31;100178.94;5029143;28;20044;-65
2021/06/14 05:22:55;;;;;;;9.50;5.22;;;;;;;16.56;60.92;100181.75;5029056;28;20037;-64
2021/06/14 05:25:20;;;;;;;11.07;6.65;;;;;;;16.79;59.97;100177.59;5029364;28;20393;-68
2021/06/14 05:27:46;;;;;;;9.30;6.43;;;;;;;17.15;59.20;100183.00;5029088;28;20116;-62
2021/06/14 05:30:11;;;;;;;12.38;6.18;;;;;;;17.42;58.63;100178.47;5030147;28;20465;-65
2021/06/14 05:32:38;;;;;;;10.48;5.93;;;;;;;17.74;57.46;100184.16;5032588;28;20091;-64
2021/06/14 05:35:05;;;;;;;14.25;6.75;;;;;;;18.03;56.47;100182.06;5031076;28;20062;-65
2021/06/14 05:37:30;;;;;;;8.35;5.10;;;;;;;18.32;56.68;100176.38;5032948;28;20678;-65
2021/06/14 05:39:55;;;;;;;8.02;5.22;;;;;;;18.75;55.10;100176.59;5033670;28;20045;-64
2021/06/14 05:42:21;;;;;;;11.20;6.18;;;;;;;19.18;53.64;100172.47;5033910;28;20045;-65
2021/06/14 05:44:46;;;;;;;12.98;5.70;;;;;;;19.69;52.53;100177.28;5033371;28;20037;-63
2021/06/14 05:47:11;;;;;;;20.70;5.13;;;;;;;20.15;51.55;100179.72;5032884;28;20029;-65
2021/06/14 05:49:37;;;;;;;10.13;5.90;;;;;;;20.31;50.01;100187.34;5033397;28;20116;-64
2021/06/14 05:52:03;;;;;;;11.82;5.40;;;;;;;20.61;50.08;100180.41;5032724;28;20053;-63
2021/06/14 05:54:28;;;;;;;16.58;6.00;;;;;;;20.92;48.34;100181.31;5034209;28;20029;-65
2021/06/14 05:56:53;;;;;;;13.30;4.78;;;;;;;21.42;45.84;100185.94;5031590;28;20038;-66
2021/06/14 05:59:19;;;;;;;7.63;4.72;;;;;;;21.61;45.41;100177.13;5030648;28;20029;-64
2021/06/14 06:01:44;;;;;;;7.25;4.28;;;;;;;21.75;45.25;100182.09;5033385;28;20436;-65
2021/06/14 06:04:09;;;;;;;10.43;4.70;;;;;;;21.94;44.68;100183.97;5032430;28;20465;-65
2021/06/14 06:06:35;;;;;;;11.18;3.97;;;;;;;22.11;44.39;100182.44;5031525;28;20113;-64
2021/06/14 06:09:00;;;;;;;6.93;4.20;;;;;;;22.36;41.41;100174.84;5031527;28;20770;-64
2021/06/14 06:11:26;;;;;;;8.68;4.28;;;;;;;22.47;44.27;100182.75;5031823;28;20029;-65
2021/06/14 06:13:51;;;;;;;12.90;5.57;;;;;;;22.64;41.88;100190.09;5031258;28;20445;-64
2021/06/14 06:16:17;;;;;;;10.35;5.13;;;;;;;22.98;42.14;100173.50;5031017;28;20351;-64
2021/06/14 06:18:42;;;;;;;10.98;4.80;;;;;;;23.34;41.49;100181.72;5031397;28;20045;-66
2021/06/14 06:21:08;;;;;;;8.95;4.50;;;;;;;23.55;40.40;100182.34;5031140;28;20048;-66
2021/06/14 06:23:33;;;;;;;6.35;3.60;;;;;;;23.49;39.71;100182.91;5031060;28;20034;-65
2021/06/14 06:25:58;;;;;;;9.25;4.15;;;;;;;23.39;39.72;100181.28;5030969;28;20037;-64
2021/06/14 06:28:24;;;;;;;12.98;4.88;;;;;;;23.39;39.18;100184.81;5031198;28;20036;-65
2021/06/14 06:30:49;;;;;;;15.80;4.85;;;;;;;23.48;38.59;100185.75;5030884;28;20417;-64
2021/06/14 06:33:15;;;;;;;11.40;4.45;;;;;;;23.51;38.73;100185.47;5030581;28;20045;-64
2021/06/14 06:35:40;;;;;;;6.38;3.90;;;;;;;23.54;37.67;100183.31;5030690;28;20037;-65
2021/06/14 06:38:05;;;;;;;13.18;6.40;;;;;;;23.75;38.08;100187.63;5030925;28;20034;-65
2021/06/14 06:40:31;;;;;;;23.88;6.97;;;;;;;24.05;37.17;100183.75;5030706;28;20086;-65
2021/06/14 06:42:57;;;;;;;19.73;7.20;;;;;;;24.17;37.31;100182.53;5029841;28;20041;-66
2021/06/14 06:45:24;;;;;;;19.65;6.65;;;;;;;24.23;37.22;100185.63;5031041;28;20472;-65
2021/06/14 06:47:49;;;;;;;67.55;9.98;;;;;;;24.27;37.46;100189.69;5030713;28;20516;-64
2021/06/14 06:50:15;;;;;;;29.98;7.32;;;;;;;24.47;36.81;100195.81;5030183;28;20041;-65
2021/06/14 06:52:41;;;;;;;27.33;10.32;;;;;;;24.75;36.51;100205.47;5030463;28;20034;-65
2021/06/14 06:55:08;;;;;;;32.75;10.90;;;;;;;24.87;36.14;100203.34;5030500;28;20036;-65
2021/06/14 06:57:34;;;;;;;32.42;8.80;;;;;;;24.91;35.93;100207.44;5030579;28;20048;-65
2021/06/14 07:00:00;;;;;;;17.40;6.75;;;;;;;24.82;35.80;100203.81;5028649;28;20489;-65
2021/06/14 07:02:25;;;;;;;10.60;5.65;;;;;;;24.87;35.94;100195.28;5030672;28;20040;-66
2021/06/14 07:04:51;;;;;;;13.90;5.45;;;;;;;24.78;35.46;100202.44;5030552;28;20541;-65
2021/06/14 07:07:16;;;;;;;9.43;4.07;;;;;;;24.62;35.15;100202.34;5029709;28;20400;-65
2021/06/14 07:09:42;;;;;;;10.57;5.75;;;;;;;24.53;34.77;100201.41;5030181;28;20067;-65
2021/06/14 07:12:08;;;;;;;15.27;7.03;;;;;;;24.51;35.29;100194.47;5028902;28;20057;-65
2021/06/14 07:14:33;;;;;;;11.68;5.55;;;;;;;24.58;35.36;100200.94;5030197;28;20030;-65
2021/06/14 07:16:59;;;;;;;11.65;4.75;;;;;;;24.68;35.23;100200.84;5029131;28;20033;-66
2021/06/14 07:19:24;;;;;;;8.45;4.50;;;;;;;24.85;35.05;100198.09;5030760;28;20501;-65
2021/06/14 07:21:49;;;;;;;8.35;5.25;;;;;;;24.79;34.80;100190.66;5030171;28;20033;-66
2021/06/14 07:24:15;;;;;;;11.18;5.32;;;;;;;24.87;34.33;100189.03;5029929;28;24392;-65
2021/06/14 07:26:40;;;;;;;10.20;5.10;;;;;;;24.96;34.73;100193.47;5024287;28;20033;-68
2021/06/14 07:29:05;;;;;;;9.93;4.47;;;;;;;25.41;34.32;100185.16;5022244;28;20041;-68
2021/06/14 07:31:31;;;;;;;18.13;5.55;;;;;;;25.89;33.58;100191.78;5026455;28;20090;-69
2021/06/14 07:33:58;;;;;;;7.63;4.75;;;;;;;26.09;32.80;100186.94;5021925;28;20516;-69
2021/06/14 07:36:25;;;;;;;7.95;5.03;;;;;;;26.67;32.29;100190.53;5028080;28;20036;-68
2021/06/14 07:38:50;;;;;;;13.90;6.55;;;;;;;27.38;30.49;100175.34;5029103;28;20567;-68
2021/06/14 07:41:16;;;;;;;7.07;5.70;;;;;;;27.93;29.67;100179.00;5011713;28;20129;-69
2021/06/14 07:43:41;;;;;;;7.90;5.13;;;;;;;28.41;29.40;100174.25;5009695;28;20038;-69
2021/06/14 07:46:06;;;;;;;12.60;4.53;;;;;;;28.89;27.54;100165.88;5009810;28;20184;-68
2021/06/14 07:48:32;;;;;;;9.27;4.93;;;;;;;29.01;27.64;100175.25;5009900;28;20030;-69
2021/06/14 07:50:58;;;;;;;10.43;4.68;;;;;;;29.18;27.21;100167.78;5009355;28;20026;-69
2021/06/14 07:53:23;;;;;;;7.15;3.20;;;;;;;29.25;26.60;100167.91;5009258;28;20037;-70
2021/06/14 07:55:52;;;;;;;5.82;3.65;;;;;;;29.37;26.85;100169.09;4997353;28;20037;-67
2021/06/14 07:58:17;;;;;;;5.97;3.63;;;;;;;29.57;26.44;100165.81;5015788;28;20696;-69
2021/06/14 08:00:43;;;;;;;8.88;3.50;;;;;;;29.69;26.42;100162.44;5011979;28;20044;-68
2021/06/14 08:03:08;;;;;;;10.23;5.63;;;;;;;29.60;26.65;100158.09;5014143;28;20036;-68
2021/06/14 08:05:34;;;;;;;7.80;3.45;;;;;;;29.42;26.02;100157.69;5023189;28;20033;-69
2021/06/14 08:07:59;;;;;;;6.43;4.05;;;;;;;29.15;26.20;100162.75;5022607;28;20098;-69
2021/06/14 08:10:25;;;;;;;12.32;4.22;;;;;;;29.19;25.88;100155.91;5024516;28;20052;-68
2021/06/14 08:12:51;;;;;;;5.40;3.35;;;;;;;29.58;25.67;100151.19;5009439;28;20052;-69
2021/06/14 08:15:22;;;;;;;6.15;3.22;;;;;;;29.73;25.33;100144.72;5023201;28;20063;-69
2021/06/14 08:17:49;;;;;;;8.80;4.20;;;;;;;29.56;25.90;100143.25;5015702;28;20033;-68
2021/06/14 08:25:35;;;;;;;5.88;3.85;;;;;;;29.82;25.38;100128.28;5018908;28;20041;-69
2021/06/14 08:28:02;;;;;;;6.88;4.07;;;;;;;29.74;25.63;100129.25;5019395;28;20608;-69
2021/06/14 08:30:30;;;;;;;10.20;4.22;;;;;;;29.82;25.79;100125.56;4990032;28;20699;-68
2021/06/14 08:32:57;;;;;;;5.53;4.00;;;;;;;29.59;25.29;100123.81;4998484;28;20454;-69
2021/06/14 08:35:27;;;;;;;5.68;4.00;;;;;;;29.40;25.69;100119.00;5013804;28;20048;-69
2021/06/14 08:37:55;;;;;;;6.65;3.58;;;;;;;29.41;25.55;100116.09;5010713;28;20041;-69
2021/06/14 08:40:25;;;;;;;4.43;3.22;;;;;;;29.41;25.95;100113.38;5002287;28;20034;-69
2021/06/14 08:42:52;;;;;;;4.93;3.63;;;;;;;29.23;25.31;100116.47;4981651;28;20410;-68
2021/06/14 08:45:19;;;;;;;7.10;3.88;;;;;;;29.24;25.79;100125.47;5005281;28;20048;-69
2021/06/14 08:47:49;;;;;;;8.13;3.63;;;;;;;29.15;25.84;100127.44;5013692;28;20129;-69
2021/06/14 08:50:19;;;;;;;8.25;3.90;;;;;;;29.16;25.18;100126.41;5017547;28;20086;-69
2021/06/14 08:52:47;;;;;;;6.72;3.88;;;;;;;29.22;24.26;100114.81;5001466;28;20046;-69
2021/06/14 08:55:15;;;;;;;9.32;3.88;;;;;;;29.49;23.77;100115.16;5016473;28;20072;-69
2021/06/14 08:57:41;;;;;;;5.53;3.22;;;;;;;29.47;24.06;100120.75;5006107;28;20041;-70
2021/06/14 09:00:10;;;;;;;6.40;3.10;;;;;;;29.65;24.12;100117.63;5022063;28;20049;-70
2021/06/14 09:02:36;;;;;;;8.10;3.55;;;;;;;30.24;22.82;100116.56;5012240;28;20083;-70
2021/06/14 09:05:03;;;;;;;7.05;3.42;;;;;;;30.87;22.13;100110.41;5024313;28;20041;-70
2021/06/14 09:07:29;;;;;;;10.18;3.38;;;;;;;31.77;21.14;100095.72;5026548;28;20037;-70
2021/06/14 09:09:54;;;;;;;6.43;3.08;;;;;;;32.27;21.43;100092.66;5027136;28;20040;-70
2021/06/14 09:12:20;;;;;;;7.38;3.33;;;;;;;32.95;19.72;100095.09;5026052;28;20041;-71
2021/06/14 09:14:46;;;;;;;11.85;3.92;;;;;;;33.41;19.43;100088.66;5026725;28;20113;-70
2021/06/14 09:17:14;;;;;;;7.40;3.25;;;;;;;33.32;18.92;100089.97;5026031;28;20037;-68
2021/06/14 09:19:51;;;;;;;6.35;3.42;;;;;;;33.50;18.33;100090.09;5026140;28;20061;-70
2021/06/14 09:22:27;;;;;;;5.90;3.70;;;;;;;33.62;18.34;100090.25;5025897;28;20201;-69
2021/06/14 09:24:59;;;;;;;6.35;3.55;;;;;;;33.82;18.39;100090.16;5026064;28;20064;-71
2021/06/14 09:27:43;;;;;;;5.40;3.50;;;;;;;34.55;18.41;100083.25;5025750;28;20041;-70
2021/06/14 09:30:18;;;;;;;5.82;3.88;;;;;;;34.61;18.37;100085.13;5023372;28;20034;-70
2021/06/14 09:33:05;;;;;;;10.05;4.05;;;;;;;34.75;17.94;100094.03;5025523;28;20041;-70
2021/06/14 09:35:41;;;;;;;9.73;4.30;;;;;;;34.50;18.03;100077.63;5023113;28;20060;-69
2021/06/14 09:38:14;;;;;;;6.95;4.10;;;;;;;34.49;18.18;100071.31;5025703;28;20485;-70
2021/06/14 09:40:52;;;;;;;4.85;3.17;;;;;;;34.48;17.14;100077.84;4995082;28;20060;-70
2021/06/14 09:43:31;;;;;;;5.80;3.58;;;;;;;34.84;17.19;100073.50;5025434;28;20033;-70
2021/06/14 09:45:59;;;;;;;5.78;3.80;;;;;;;34.66;17.69;100071.59;5013060;28;20037;-69
2021/06/14 09:48:27;;;;;;;5.95;4.20;;;;;;;34.69;17.94;100067.56;5023057;28;20511;-69
2021/06/14 09:50:54;;;;;;;6.25;4.22;;;;;;;34.81;17.82;100063.84;5024925;28;20698;-69
2021/06/14 09:53:21;;;;;;;10.40;4.97;;;;;;;34.77;18.33;100059.88;5009463;28;20477;-70
2021/06/14 09:55:49;;;;;;;6.25;3.50;;;;;;;35.24;18.11;100064.84;5016652;28;20037;-70
2021/06/14 09:58:21;;;;;;;7.47;3.92;;;;;;;35.18;17.96;100063.03;5022604;28;20029;-70
2021/06/14 10:00:50;;;;;;;7.20;4.60;;;;;;;35.42;17.75;100061.22;5013052;28;20193;-69
2021/06/14 10:03:16;;;;;;;6.97;4.55;;;;;;;35.40;17.64;100060.63;5019209;28;20041;-68
2021/06/14 10:05:50;;;;;;;8.30;4.82;;;;;;;35.50;17.75;100049.94;5021894;28;20044;-70
2021/06/14 10:08:27;;;;;;;5.97;4.03;;;;;;;35.64;17.60;100054.19;5020887;28;20692;-71
2021/06/14 10:11:04;;;;;;;10.00;4.32;;;;;;;35.61;17.89;100048.31;5016589;28;20126;-71
2021/06/14 10:13:30;;;;;;;5.50;4.25;;;;;;;35.59;17.96;100053.16;5020686;28;20037;-71
2021/06/14 10:16:02;;;;;;;6.95;4.18;;;;;;;35.61;17.99;100056.56;5024925;28;20116;-70
2021/06/14 10:18:40;;;;;;;6.03;3.75;;;;;;;35.64;17.66;100050.59;5021620;28;20033;-71
2021/06/14 10:21:09;;;;;;;5.50;4.05;;;;;;;35.27;18.06;100045.16;5024030;28;20103;-69
2021/06/14 10:23:35;;;;;;;4.55;3.70;;;;;;;35.52;18.12;100035.97;5025147;28;20044;-70
2021/06/14 10:26:01;;;;;;;7.30;3.83;;;;;;;35.79;18.11;100039.19;5024608;28;20029;-69
2021/06/14 10:28:30;;;;;;;5.15;4.03;;;;;;;35.60;17.88;100039.25;5018847;28;20078;-69
2021/06/14 10:30:56;;;;;;;6.35;3.63;;;;;;;34.98;18.40;100041.31;5022785;28;20042;-71
2021/06/14 10:33:29;;;;;;;6.40;4.05;;;;;;;34.97;17.82;100043.22;5025705;28;20033;-70
2021/06/14 10:35:55;;;;;;;7.13;3.90;;;;;;;34.85;18.99;100042.28;5025683;28;20065;-68
2021/06/14 10:38:22;;;;;;;4.70;3.80;;;;;;;35.04;18.26;100043.13;5025018;28;20037;-70
2021/06/14 10:40:50;;;;;;;7.10;3.75;;;;;;;35.25;18.16;100037.19;5026068;28;20502;-69
2021/06/14 10:43:15;;;;;;;4.57;3.42;;;;;;;35.36;18.12;100037.47;5026239;28;20472;-70
2021/06/14 10:45:41;;;;;;;5.70;3.30;;;;;;;35.34;18.55;100032.22;5024853;28;20033;-70
2021/06/14 10:48:10;;;;;;;4.82;3.72;;;;;;;35.42;18.38;100022.81;5025027;28;20041;-70
2021/06/14 10:50:37;;;;;;;16.33;4.63;;;;;;;35.68;18.81;100030.69;5025457;28;20832;-70
2021/06/14 10:53:04;;;;;;;6.40;3.58;;;;;;;35.63;18.46;100032.47;5025401;28;20046;-68
2021/06/14 10:55:32;;;;;;;6.40;4.07;;;;;;;35.52;18.40;100025.00;5024480;28;20046;-68
2021/06/14 10:57:58;;;;;;;8.32;3.95;;;;;;;35.33;18.65;100024.25;5025518;28;20084;-69
2021/06/14 11:00:30;;;;;;;6.60;3.42;;;;;;;34.59;19.38;100021.53;5025231;28;20554;-69
2021/06/14 11:02:58;;;;;;;7.45;3.83;;;;;;;33.70;20.29;100016.19;5023164;28;20034;-70
2021/06/14 11:05:32;;;;;;;6.47;3.55;;;;;;;32.70;21.08;100008.41;5024991;28;20053;-72
2021/06/14 11:08:09;;;;;;;7.43;3.13;;;;;;;32.37;21.96;100007.66;5024574;28;20041;-71
2021/06/14 11:10:36;;;;;;;6.32;3.35;;;;;;;32.01;22.73;99993.41;5023550;28;20068;-70
2021/06/14 11:13:08;;;;;;;5.88;2.70;;;;;;;31.75;22.59;100009.72;5024789;28;20599;-72
2021/06/14 11:15:35;;;;;;;4.63;3.30;;;;;;;31.57;23.25;100004.88;5006517;28;20037;-70
2021/06/14 11:18:05;;;;;;;6.85;4.20;;;;;;;31.28;23.11;100008.78;5038823;28;20098;-70
2021/06/14 11:20:34;;;;;;;6.70;4.10;;;;;;;31.07;23.66;100005.16;5014135;28;20053;-71
2021/06/14 11:23:01;;;;;;;4.00;3.15;;;;;;;31.08;23.14;100005.97;5038903;28;20805;-70
2021/06/14 11:25:30;;;;;;;4.30;3.38;;;;;;;30.96;23.57;100011.16;5024632;28;20029;-69
2021/06/14 11:28:02;;;;;;;7.25;3.08;;;;;;;30.83;23.54;100011.13;5021397;28;20067;-68